Time;durP1;ratioP1;P1;durP2;ratioP2;P2;SDS_P1;SDS_P2;PMS_P1;PMS_P2;Temp;Humidity;BMP_temperature;BMP_pressure;BME280_temperature;BME280_humidity;BME280_pressure;Samples;Min_cycle;Max_cycle;Signal;HPM_P1;HPM_P2
2023/01/06 00:01:19;;;;;;;15.50;8.07;;;;;;;6.39;100.00;100461.16;5003426;28;20399;-88
2023/01/06 00:03:51;;;;;;;22.70;13.45;;;;;;;6.17;100.00;100471.22;5008401;28;20045;-83
2023/01/06 00:06:18;;;;;;;17.30;12.53;;;;;;;6.18;100.00;100472.97;5009503;28;20087;-80
2023/01/06 00:08:44;;;;;;;18.55;13.13;;;;;;;6.20;100.00;100459.97;5023836;28;20066;-83
2023/01/06 00:11:12;;;;;;;18.85;11.77;;;;;;;5.97;100.00;100460.44;5019257;28;20517;-80
2023/01/06 00:13:38;;;;;;;13.38;8.23;;;;;;;5.96;100.00;100502.94;5005563;28;20112;-81
2023/01/06 00:16:09;;;;;;;15.85;11.98;;;;;;;5.83;100.00;100467.94;5013850;28;20052;-87
2023/01/06 00:18:36;;;;;;;13.40;8.57;;;;;;;6.19;100.00;100487.75;5008072;28;20050;-84
2023/01/06 00:21:02;;;;;;;19.48;12.05;;;;;;;6.16;100.00;100463.34;5009793;28;20046;-80
2023/01/06 00:23:28;;;;;;;17.50;11.98;;;;;;;5.50;100.00;100350.97;4996905;28;20101;-84
2023/01/06 00:25:54;;;;;;;19.67;12.68;;;;;;;6.26;100.00;100467.91;5017009;28;20038;-83
2023/01/06 00:28:19;;;;;;;11.10;8.68;;;;;;;6.26;100.00;100481.81;5011075;28;20052;-85
2023/01/06 00:30:45;;;;;;;13.25;7.68;;;;;;;5.60;100.00;100359.88;5011158;28;20751;-87
2023/01/06 00:33:10;;;;;;;15.65;7.85;;;;;;;5.62;100.00;100446.63;5010145;28;20045;-83
2023/01/06 00:35:38;;;;;;;14.98;11.52;;;;;;;5.74;100.00;100441.72;5002864;28;20413;-84
2023/01/06 00:38:04;;;;;;;15.73;11.98;;;;;;;6.09;100.00;100488.44;4997368;28;20034;-86
2023/01/06 00:40:29;;;;;;;14.57;9.70;;;;;;;5.19;100.00;100331.28;5009435;28;20513;-86
2023/01/06 00:42:55;;;;;;;12.73;6.93;;;;;;;5.24;100.00;100371.28;5004491;28;20088;-84
2023/01/06 00:45:20;;;;;;;21.30;12.82;;;;;;;5.92;100.00;100483.75;5001453;28;20053;-85
2023/01/06 00:47:46;;;;;;;12.45;7.63;;;;;;;5.92;100.00;100482.84;5006802;28;20153;-84
2023/01/06 00:50:11;;;;;;;18.40;9.05;;;;;;;5.92;100.00;100482.84;5007753;28;20037;-85
2023/01/06 00:52:37;;;;;;;14.18;9.07;;;;;;;5.07;100.00;100368.31;5008130;28;20524;-87
2023/01/06 00:55:04;;;;;;;17.90;11.32;;;;;;;5.94;100.00;100486.38;5006815;28;20456;-88
2023/01/06 00:57:29;;;;;;;13.98;7.75;;;;;;;5.30;100.00;100381.81;5014275;28;20042;-85
2023/01/06 00:59:55;;;;;;;19.10;12.80;;;;;;;5.90;100.00;100471.53;5006432;28;20057;-88
2023/01/06 01:02:20;;;;;;;13.98;8.13;;;;;;;6.12;100.00;100494.56;5011621;28;20398;-88
2023/01/06 01:04:46;;;;;;;17.27;8.18;;;;;;;6.16;100.00;100498.13;5005392;28;20149;-84
2023/01/06 01:07:11;;;;;;;17.90;12.10;;;;;;;5.53;100.00;100431.75;5002406;28;20050;-84
2023/01/06 01:09:37;;;;;;;13.02;7.57;;;;;;;6.11;100.00;100504.94;5014711;28;20087;-84
2023/01/06 01:12:08;;;;;;;12.30;7.25;;;;;;;5.90;100.00;100475.00;5013881;28;20026;-85
2023/01/06 01:14:35;;;;;;;13.15;8.02;;;;;;;5.66;100.00;100506.63;5012459;28;20064;-85
2023/01/06 01:17:01;;;;;;;16.73;7.45;;;;;;;5.80;100.00;100498.22;5005539;28;20042;-87
2023/01/06 01:19:27;;;;;;;13.25;8.35;;;;;;;5.61;100.00;100536.00;5011861;28;20049;-87
2023/01/06 01:21:53;;;;;;;18.00;11.15;;;;;;;4.89;100.00;100386.13;5009871;28;20041;-84
2023/01/06 01:24:19;;;;;;;15.10;10.32;;;;;;;5.22;100.00;100423.28;5014688;28;20045;-86
2023/01/06 01:26:45;;;;;;;14.15;8.90;;;;;;;5.87;100.00;100510.53;5015942;28;20504;-83
2023/01/06 01:29:12;;;;;;;19.98;8.77;;;;;;;5.04;100.00;100386.47;5006393;28;20073;-85
2023/01/06 01:31:37;;;;;;;15.75;8.35;;;;;;;5.57;100.00;100495.13;5008364;28;20120;-82
2023/01/06 01:34:03;;;;;;;12.25;6.95;;;;;;;5.82;100.00;100546.88;4996661;28;20089;-84
2023/01/06 01:36:29;;;;;;;11.45;7.63;;;;;;;5.19;100.00;100417.13;5008218;28;20108;-85
2023/01/06 01:38:56;;;;;;;15.40;7.00;;;;;;;5.74;100.00;100496.38;5012323;28;20041;-87
2023/01/06 01:41:22;;;;;;;11.15;7.60;;;;;;;5.56;100.00;100535.03;5024989;28;20390;-84
2023/01/06 01:43:57;;;;;;;16.40;11.45;;;;;;;5.40;100.00;100507.78;5005879;28;20041;-84
2023/01/06 01:46:25;;;;;;;12.70;7.00;;;;;;;5.42;100.00;100548.59;5016375;28;20041;-83
2023/01/06 01:48:55;;;;;;;14.18;7.82;;;;;;;4.77;100.00;100444.78;5018601;28;20171;-84
2023/01/06 01:51:27;;;;;;;19.42;9.60;;;;;;;4.45;100.00;100472.59;5011222;28;20181;-85
2023/01/06 01:53:57;;;;;;;11.98;7.05;;;;;;;4.40;100.00;100442.97;5009132;28;20054;-82
2023/01/06 01:56:27;;;;;;;14.52;8.77;;;;;;;5.24;100.00;100517.84;5009073;28;20060;-85
2023/01/06 01:58:55;;;;;;;12.20;7.63;;;;;;;4.88;100.00;100447.63;5002971;28;20054;-86
2023/01/06 02:01:21;;;;;;;13.93;6.93;;;;;;;5.45;100.00;100535.66;5014111;28;20045;-86
2023/01/06 02:03:46;;;;;;;14.63;8.35;;;;;;;4.83;100.00;100436.25;5011655;28;20398;-85
2023/01/06 02:06:20;;;;;;;10.95;7.25;;;;;;;4.66;100.00;100420.28;5013868;28;20141;-88
2023/01/06 02:08:59;;;;;;;11.20;7.22;;;;;;;5.03;100.00;100454.91;5000206;28;20050;-88
2023/01/06 02:11:28;;;;;;;12.57;7.22;;;;;;;5.62;100.00;100567.28;5000989;28;20137;-89
2023/01/06 02:14:06;;;;;;;12.32;7.35;;;;;;;4.56;100.00;100457.25;5010476;28;20140;-88
2023/01/06 02:17:09;;;;;;;11.05;7.45;;;;;;;5.52;100.00;100575.72;5005922;28;20100;-90
2023/01/06 02:19:59;;;;;;;15.82;6.65;;;;;;;5.53;100.00;100581.81;5023188;28;20045;-86
2023/01/06 02:22:24;;;;;;;10.68;6.10;;;;;;;5.67;100.00;100578.66;5026703;28;20061;-79
2023/01/06 02:25:24;;;;;;;8.07;5.38;;;;;;;5.72;100.00;100587.47;5015564;28;20081;-90
2023/01/06 02:27:55;;;;;;;12.07;6.80;;;;;;;5.64;100.00;100578.63;5008763;28;20065;-84
2023/01/06 02:30:38;;;;;;;12.02;7.10;;;;;;;5.52;100.00;100586.13;5007778;28;20057;-83
2023/01/06 02:33:17;;;;;;;15.05;7.45;;;;;;;4.56;100.00;100452.06;5010145;28;20062;-82
2023/01/06 02:35:48;;;;;;;9.52;6.35;;;;;;;5.50;100.00;100585.19;5008657;28;20160;-82
2023/01/06 02:38:16;;;;;;;15.57;6.07;;;;;;;5.50;100.00;100577.38;5004414;28;20030;-84
2023/01/06 02:40:43;;;;;;;18.67;6.03;;;;;;;5.45;100.00;100579.00;5002427;28;20493;-84
2023/01/06 02:43:11;;;;;;;13.73;4.80;;;;;;;5.62;100.00;100577.69;5005836;28;20046;-84
2023/01/06 02:46:04;;;;;;;25.77;7.40;;;;;;;5.59;100.00;100568.91;5006913;28;20046;-84
2023/01/06 02:49:22;;;;;;;11.50;6.68;;;;;;;5.66;100.00;100571.69;5014989;28;20112;-88
2023/01/06 02:51:56;;;;;;;11.05;5.88;;;;;;;5.68;100.00;100571.75;4986661;28;20050;-90
2023/01/06 02:54:24;;;;;;;9.73;4.85;;;;;;;5.78;100.00;100573.69;5010073;28;20215;-86
2023/01/06 02:57:00;;;;;;;13.30;6.05;;;;;;;5.05;100.00;100458.44;5007626;28;20616;-87
2023/01/06 02:59:32;;;;;;;18.83;6.13;;;;;;;5.07;100.00;100481.03;5008446;28;20075;-85
2023/01/06 03:02:00;;;;;;;10.35;6.18;;;;;;;5.35;100.00;100538.91;5007849;28;20026;-86
2023/01/06 03:04:31;;;;;;;14.98;6.45;;;;;;;5.43;100.00;100576.41;5008508;28;20095;-84
2023/01/06 03:07:01;;;;;;;9.88;6.22;;;;;;;4.54;100.00;100441.66;5006865;28;20129;-87
2023/01/06 03:09:33;;;;;;;11.43;6.18;;;;;;;5.04;100.00;100545.09;5006429;28;20088;-87
2023/01/06 03:12:00;;;;;;;15.93;6.75;;;;;;;5.20;100.00;100587.97;5010167;28;20065;-88
2023/01/06 03:14:34;;;;;;;10.02;5.57;;;;;;;4.21;100.00;100432.16;5002677;28;20050;-83
2023/01/06 03:17:00;;;;;;;9.85;5.53;;;;;;;5.13;100.00;100584.34;5000513;28;20813;-83
2023/01/06 03:19:26;;;;;;;12.55;5.65;;;;;;;4.83;100.00;100541.13;5012194;28;20549;-81
2023/01/06 03:21:52;;;;;;;11.57;6.63;;;;;;;4.91;100.00;100571.63;5011941;28;20050;-81
2023/01/06 03:24:18;;;;;;;10.23;5.60;;;;;;;4.23;100.00;100472.00;5006342;28;20221;-81
2023/01/06 03:26:45;;;;;;;12.98;6.80;;;;;;;4.63;100.00;100521.53;5007659;28;20046;-80
2023/01/06 03:29:14;;;;;;;13.10;6.85;;;;;;;5.18;100.00;100582.72;5021645;28;20029;-78
2023/01/06 03:31:54;;;;;;;9.02;6.32;;;;;;;5.36;100.00;100608.31;5028983;28;20065;-81
2023/01/06 03:34:52;;;;;;;9.95;6.78;;;;;;;5.01;100.00;100563.22;5011134;28;20532;-82
2023/01/06 03:37:32;;;;;;;8.43;4.45;;;;;;;5.49;100.00;100601.66;4988392;28;20149;-83
2023/01/06 03:40:00;;;;;;;13.07;6.13;;;;;;;5.40;100.00;100596.25;5006181;28;20092;-82
2023/01/06 03:45:51;;;;;;;11.27;7.32;;;;;;;5.63;100.00;100586.38;5006931;28;20061;-83
2023/01/06 03:48:25;;;;;;;22.55;6.43;;;;;;;5.67;100.00;100586.47;5007184;28;20113;-85
2023/01/06 03:50:56;;;;;;;12.90;5.25;;;;;;;5.61;100.00;100580.25;5010915;28;20053;-83
2023/01/06 03:53:33;;;;;;;9.93;6.13;;;;;;;5.53;100.00;100587.03;5003756;28;20192;-82
2023/01/06 03:56:17;;;;;;;9.85;6.18;;;;;;;4.32;100.00;100390.84;5008447;28;20033;-86
2023/01/06 03:58:45;;;;;;;9.90;5.85;;;;;;;5.18;100.00;100522.03;5000435;28;20057;-85
2023/01/06 04:01:13;;;;;;;8.07;4.00;;;;;;;4.89;100.00;100483.19;5008860;28;20140;-85
2023/01/06 04:03:38;;;;;;;10.57;5.35;;;;;;;4.89;100.00;100448.50;5001721;28;20054;-84
2023/01/06 04:06:04;;;;;;;7.25;4.53;;;;;;;5.55;100.00;100561.88;5003907;28;20172;-84
2023/01/06 04:08:29;;;;;;;13.00;6.03;;;;;;;4.99;100.00;100471.31;4999357;28;20038;-84
2023/01/06 04:10:55;;;;;;;12.00;7.57;;;;;;;5.55;100.00;100586.22;5006741;28;20033;-86
2023/01/06 04:13:20;;;;;;;10.18;6.85;;;;;;;5.52;100.00;100580.03;4999728;28;20144;-79
2023/01/06 04:15:46;;;;;;;9.90;6.00;;;;;;;5.42;100.00;100605.84;5002777;28;20079;-82
2023/01/06 04:18:11;;;;;;;12.50;5.60;;;;;;;5.02;100.00;100506.03;5001713;28;20121;-82
2023/01/06 04:20:37;;;;;;;11.85;5.63;;;;;;;5.60;100.00;100581.97;5007736;28;20099;-82
2023/01/06 04:23:02;;;;;;;14.30;7.57;;;;;;;5.59;100.00;100594.94;5005371;28;20072;-82
2023/01/06 04:25:28;;;;;;;10.45;5.57;;;;;;;5.47;100.00;100587.75;5004564;28;20046;-82
2023/01/06 04:27:53;;;;;;;11.38;6.28;;;;;;;5.60;100.00;100610.63;4989948;28;20051;-84
2023/01/06 04:30:19;;;;;;;14.02;9.60;;;;;;;5.62;100.00;100601.13;5000511;28;20057;-88
2023/01/06 04:32:44;;;;;;;20.90;6.05;;;;;;;5.59;100.00;100616.66;5003497;28;20053;-83
2023/01/06 04:35:10;;;;;;;14.52;5.88;;;;;;;4.88;100.00;100499.63;5006074;28;20516;-80
2023/01/06 04:37:36;;;;;;;10.90;5.78;;;;;;;5.12;100.00;100522.75;5023006;28;20046;-83
2023/01/06 04:40:02;;;;;;;9.13;4.97;;;;;;;5.37;100.00;100546.75;5008518;28;20465;-81
2023/01/06 04:42:28;;;;;;;6.53;4.55;;;;;;;5.71;100.00;100608.25;4999368;28;20064;-86
2023/01/06 04:44:53;;;;;;;14.70;7.63;;;;;;;5.27;100.00;100519.63;5011713;28;20042;-86
2023/01/06 04:47:18;;;;;;;8.68;4.88;;;;;;;5.14;100.00;100481.19;5016295;28;20509;-84
2023/01/06 04:49:44;;;;;;;7.53;4.13;;;;;;;5.72;100.00;100597.00;5008040;28;20429;-83
2023/01/06 04:52:09;;;;;;;9.85;4.50;;;;;;;5.82;100.00;100608.50;4999503;28;20078;-85
2023/01/06 04:54:35;;;;;;;12.00;6.28;;;;;;;5.38;100.00;100505.13;5013641;28;20053;-86
2023/01/06 04:57:01;;;;;;;10.18;5.30;;;;;;;6.10;100.00;100623.91;5014208;28;20061;-85
2023/01/06 04:59:26;;;;;;;15.60;4.90;;;;;;;5.32;100.00;100509.34;5002202;28;20716;-90
2023/01/06 05:01:52;;;;;;;9.88;5.40;;;;;;;5.92;100.00;100602.63;5003017;28;20030;-87
2023/01/06 05:04:17;;;;;;;9.98;6.93;;;;;;;5.86;100.00;100645.06;5008569;28;20128;-81
2023/01/06 05:06:43;;;;;;;11.57;4.60;;;;;;;5.89;100.00;100626.00;5012640;28;20568;-84
2023/01/06 05:09:08;;;;;;;8.90;4.75;;;;;;;5.92;100.00;100647.81;5007514;28;20042;-87
2023/01/06 05:11:34;;;;;;;12.85;5.13;;;;;;;6.05;100.00;100659.41;5013191;28;20050;-87
2023/01/06 05:13:59;;;;;;;10.95;5.28;;;;;;;5.50;100.00;100570.50;5010446;28;20057;-87
2023/01/06 05:16:27;;;;;;;12.57;5.65;;;;;;;5.78;100.00;100624.88;5011754;28;20131;-89
2023/01/06 05:18:53;;;;;;;9.98;5.28;;;;;;;5.30;100.00;100530.09;5019750;28;20049;-83
2023/01/06 05:21:19;;;;;;;7.68;4.60;;;;;;;5.99;100.00;100655.78;5006548;28;20064;-83
2023/01/06 05:23:45;;;;;;;12.05;8.55;;;;;;;5.45;100.00;100547.78;5008094;28;20046;-84
2023/01/06 05:26:17;;;;;;;14.98;6.25;;;;;;;5.38;100.00;100541.56;5013255;28;20045;-86
2023/01/06 05:28:42;;;;;;;9.70;4.93;;;;;;;5.24;100.00;100548.16;5000923;28;20187;-85
2023/01/06 05:31:09;;;;;;;6.97;4.30;;;;;;;5.93;100.00;100680.81;5006476;28;20102;-88
2023/01/06 05:33:35;;;;;;;11.75;7.68;;;;;;;5.72;100.00;100654.28;5016696;28;20052;-87
2023/01/06 05:36:03;;;;;;;17.55;5.30;;;;;;;5.93;100.00;100685.16;5014089;28;20855;-88
2023/01/06 05:38:29;;;;;;;9.05;4.47;;;;;;;5.36;100.00;100584.00;5002228;28;20095;-83
2023/01/06 05:40:55;;;;;;;11.25;4.35;;;;;;;6.03;100.00;100684.53;5011098;28;20437;-86
2023/01/06 05:43:22;;;;;;;9.05;5.30;;;;;;;5.97;100.00;100671.38;5013474;28;20114;-86
2023/01/06 05:45:48;;;;;;;17.30;8.32;;;;;;;5.18;100.00;100566.25;5012886;28;20640;-85
2023/01/06 05:48:13;;;;;;;8.48;5.63;;;;;;;5.57;100.00;100647.00;5011494;28;20042;-82
2023/01/06 05:50:39;;;;;;;14.65;5.65;;;;;;;5.93;100.00;100691.22;5009051;28;20053;-83
2023/01/06 05:53:04;;;;;;;10.95;5.53;;;;;;;5.89;100.00;100692.00;5011418;28;20034;-86
2023/01/06 05:55:30;;;;;;;13.75;6.40;;;;;;;5.86;100.00;100668.50;5014727;28;20490;-85
2023/01/06 05:57:55;;;;;;;9.00;4.97;;;;;;;5.64;100.00;100661.00;5009340;28;20505;-84
2023/01/06 06:00:21;;;;;;;6.95;4.70;;;;;;;5.62;100.00;100652.28;5002698;28;20060;-85
2023/01/06 06:02:46;;;;;;;14.38;5.57;;;;;;;5.84;100.00;100683.19;5006989;28;20056;-86
2023/01/06 06:05:12;;;;;;;9.65;4.53;;;;;;;6.05;100.00;100706.28;5016522;28;20029;-82
2023/01/06 06:07:37;;;;;;;8.75;4.20;;;;;;;6.06;100.00;100697.66;5003048;28;20132;-85
2023/01/06 06:10:03;;;;;;;6.43;4.25;;;;;;;5.88;100.00;100690.25;5006896;28;20119;-84
2023/01/06 06:12:29;;;;;;;12.38;5.47;;;;;;;5.93;100.00;100678.22;5004129;28;20053;-84
2023/01/06 06:14:55;;;;;;;13.38;6.57;;;;;;;6.08;100.00;100695.94;5008513;28;20046;-84
2023/01/06 06:17:20;;;;;;;8.52;5.85;;;;;;;5.44;100.00;100604.16;5008065;28;20038;-85
2023/01/06 06:19:46;;;;;;;14.43;5.10;;;;;;;6.24;100.00;100730.16;5001330;28;20045;-83
2023/01/06 06:22:11;;;;;;;7.38;4.68;;;;;;;6.20;100.00;100734.41;5007823;28;20519;-85
2023/01/06 06:24:37;;;;;;;11.13;5.50;;;;;;;5.69;100.00;100657.69;5009425;28;20058;-86
2023/01/06 06:27:02;;;;;;;9.32;5.25;;;;;;;6.27;100.00;100740.66;5014189;28;20049;-87
2023/01/06 06:29:28;;;;;;;9.25;4.97;;;;;;;6.22;100.00;100747.47;5004758;28;20045;-87
2023/01/06 06:31:53;;;;;;;11.73;4.65;;;;;;;6.31;100.00;100745.09;5009385;28;20049;-83
2023/01/06 06:34:18;;;;;;;9.07;3.92;;;;;;;5.50;100.00;100601.72;5007278;28;20046;-88
2023/01/06 06:36:44;;;;;;;13.98;7.03;;;;;;;5.74;100.00;100650.00;5008839;28;20049;-83
2023/01/06 06:39:09;;;;;;;11.10;4.45;;;;;;;5.95;100.00;100693.00;5030088;28;20079;-79
2023/01/06 06:41:35;;;;;;;10.43;4.97;;;;;;;6.30;100.00;100778.09;5020745;28;20064;-83
2023/01/06 06:44:02;;;;;;;7.03;4.15;;;;;;;6.20;100.00;100768.28;5007167;28;20124;-87
2023/01/06 06:46:28;;;;;;;13.77;5.88;;;;;;;6.02;100.00;100729.66;5006144;28;20058;-80
2023/01/06 06:48:54;;;;;;;9.32;6.50;;;;;;;5.75;100.00;100656.06;5002188;28;20042;-83
2023/01/06 06:51:20;;;;;;;14.48;6.95;;;;;;;6.30;100.00;100785.03;4996343;28;20042;-86
2023/01/06 06:53:46;;;;;;;10.70;4.80;;;;;;;5.54;100.00;100675.53;5006882;28;20147;-85
2023/01/06 06:56:13;;;;;;;7.53;4.45;;;;;;;6.52;100.00;100809.84;5006397;28;20568;-81
2023/01/06 06:58:39;;;;;;;7.45;4.55;;;;;;;6.57;100.00;100805.63;5005779;28;20134;-81
2023/01/06 07:01:15;;;;;;;15.73;5.75;;;;;;;6.43;100.00;100788.78;5005205;28;20561;-83
2023/01/06 07:03:42;;;;;;;15.25;6.40;;;;;;;6.60;100.00;100830.88;5008265;28;20576;-82
2023/01/06 07:06:10;;;;;;;10.23;5.32;;;;;;;5.59;100.00;100673.91;5006636;28;20172;-83
2023/01/06 07:08:35;;;;;;;7.72;3.92;;;;;;;5.93;100.00;100705.97;5006818;28;20115;-83
2023/01/06 07:11:01;;;;;;;13.98;6.32;;;;;;;6.60;100.00;100815.25;5007590;28;20124;-83
2023/01/06 07:13:27;;;;;;;11.88;6.80;;;;;;;6.13;100.00;100740.31;5010580;28;20045;-82
2023/01/06 07:15:52;;;;;;;21.45;5.10;;;;;;;6.34;100.00;100776.41;5012018;28;20057;-81
2023/01/06 07:18:18;;;;;;;10.68;7.03;;;;;;;6.41;100.00;100788.75;5005815;28;20058;-84
2023/01/06 07:20:48;;;;;;;18.83;6.82;;;;;;;6.66;100.00;100831.91;5005897;28;20129;-87
2023/01/06 07:23:15;;;;;;;8.30;5.57;;;;;;;6.01;100.00;100737.44;5009254;28;20049;-81
2023/01/06 07:25:41;;;;;;;12.02;4.72;;;;;;;6.56;100.00;100837.78;5006761;28;20131;-80
2023/01/06 07:28:08;;;;;;;13.30;5.22;;;;;;;6.87;100.00;100873.25;5008230;28;20523;-82
2023/01/06 07:30:33;;;;;;;11.65;6.55;;;;;;;6.13;100.00;100756.88;5008904;28;20050;-79
2023/01/06 07:32:59;;;;;;;7.43;4.25;;;;;;;6.85;100.00;100874.94;5004542;28;20044;-82
2023/01/06 07:35:25;;;;;;;14.70;5.20;;;;;;;6.97;100.00;100869.97;4995843;28;20076;-84
2023/01/06 07:37:51;;;;;;;11.40;6.20;;;;;;;6.71;100.00;100809.41;5005891;28;20504;-84
2023/01/06 07:40:17;;;;;;;9.23;4.70;;;;;;;6.72;100.00;100805.97;5004667;28;20058;-85
2023/01/06 07:42:43;;;;;;;8.18;4.63;;;;;;;7.28;100.00;100906.28;4998626;28;20115;-84
2023/01/06 07:45:09;;;;;;;9.20;4.65;;;;;;;7.33;100.00;100902.06;5002440;28;20058;-86
2023/01/06 07:47:35;;;;;;;12.10;6.60;;;;;;;7.18;100.00;100859.13;5001926;28;20057;-85
2023/01/06 07:50:00;;;;;;;11.60;7.38;;;;;;;7.30;100.00;100874.16;5000385;28;20052;-85
2023/01/06 07:52:25;;;;;;;12.75;7.03;;;;;;;6.68;100.00;100790.22;5021418;28;20061;-84
2023/01/06 07:54:51;;;;;;;12.43;4.80;;;;;;;6.91;100.00;100822.91;5002329;28;20069;-84
2023/01/06 07:57:16;;;;;;;10.18;6.20;;;;;;;7.49;100.00;100901.53;5005206;28;20058;-88
2023/01/06 07:59:42;;;;;;;11.27;5.82;;;;;;;7.36;100.00;100873.41;5001223;28;20046;-83
2023/01/06 08:02:10;;;;;;;15.13;6.43;;;;;;;7.55;100.00;100898.16;5001071;28;20401;-85
2023/01/06 08:04:36;;;;;;;13.15;6.20;;;;;;;7.73;100.00;100906.38;5009051;28;20092;-82
2023/01/06 08:07:03;;;;;;;11.38;6.45;;;;;;;7.51;100.00;100850.22;5005554;28;20050;-84
2023/01/06 08:09:29;;;;;;;13.52;6.50;;;;;;;7.72;100.00;100894.13;5015571;28;20406;-87
2023/01/06 08:11:54;;;;;;;18.35;6.45;;;;;;;7.40;100.00;100844.78;5005623;28;20038;-85
2023/01/06 08:14:20;;;;;;;15.60;7.30;;;;;;;7.26;100.00;100801.88;5002884;28;20038;-84
2023/01/06 08:16:45;;;;;;;12.85;6.32;;;;;;;7.42;100.00;100831.75;5007685;28;20488;-86
2023/01/06 08:19:11;;;;;;;9.93;5.95;;;;;;;7.57;100.00;100852.06;5009131;28;20054;-80
2023/01/06 08:21:36;;;;;;;9.95;6.53;;;;;;;7.92;100.00;100922.41;5006220;28;20485;-86
2023/01/06 08:24:01;;;;;;;13.13;6.95;;;;;;;8.21;100.00;100949.94;5008843;28;20174;-85
2023/01/06 08:26:27;;;;;;;9.50;6.32;;;;;;;7.14;100.00;100809.44;5008065;28;20096;-84
2023/01/06 08:28:53;;;;;;;8.82;6.10;;;;;;;8.02;100.00;100932.16;5006834;28;20029;-83
2023/01/06 08:31:21;;;;;;;9.93;6.00;;;;;;;8.23;100.00;100956.06;5008308;28;21896;-83
2023/01/06 08:33:47;;;;;;;11.75;6.07;;;;;;;7.66;100.00;100849.63;5003501;28;20441;-83
2023/01/06 08:36:16;;;;;;;17.27;10.82;;;;;;;7.71;100.00;100823.59;5003535;28;20046;-82
2023/01/06 08:38:43;;;;;;;11.57;6.65;;;;;;;7.92;100.00;100862.31;5003405;28;20054;-79
2023/01/06 08:41:09;;;;;;;11.43;6.82;;;;;;;8.35;100.00;100955.41;5011812;28;20093;-82
2023/01/06 08:43:35;;;;;;;15.38;6.50;;;;;;;8.55;100.00;100949.72;5009062;28;20050;-83
2023/01/06 08:46:04;;;;;;;11.07;6.45;;;;;;;8.56;100.00;100952.31;5008645;28;20122;-87
2023/01/06 08:48:30;;;;;;;11.80;6.60;;;;;;;8.56;100.00;100938.38;5004951;28;20062;-86
2023/01/06 08:51:04;;;;;;;12.05;7.40;;;;;;;8.04;100.00;100842.47;5004864;28;20046;-87
2023/01/06 08:53:31;;;;;;;13.75;7.07;;;;;;;8.46;100.00;100905.97;5005852;28;20455;-78
2023/01/06 08:55:56;;;;;;;12.05;6.85;;;;;;;8.87;100.00;100968.53;4999006;28;20117;-76
2023/01/06 08:58:22;;;;;;;10.55;7.10;;;;;;;8.92;100.00;100942.44;5006900;28;20053;-75
2023/01/06 09:00:47;;;;;;;20.55;7.90;;;;;;;8.24;100.00;100827.16;5006874;28;20128;-77
2023/01/06 09:03:13;;;;;;;13.43;7.72;;;;;;;8.90;100.00;100955.50;5008448;28;20488;-78
2023/01/06 09:05:38;;;;;;;12.27;6.85;;;;;;;8.88;100.00;100928.44;5004400;28;20056;-76
2023/01/06 09:08:04;;;;;;;14.02;7.57;;;;;;;9.16;100.00;100952.41;5011809;28;20033;-77
2023/01/06 09:10:30;;;;;;;14.07;7.28;;;;;;;8.69;100.00;100850.53;5011959;28;20053;-76
2023/01/06 09:12:55;;;;;;;9.73;6.07;;;;;;;8.79;100.00;100850.66;5004065;28;20282;-77
2023/01/06 09:15:21;;;;;;;10.13;6.47;;;;;;;9.14;100.00;100941.03;5004975;28;20537;-82
2023/01/06 09:17:46;;;;;;;16.75;6.93;;;;;;;9.23;100.00;100931.56;5013924;28;20048;-81
2023/01/06 09:20:12;;;;;;;8.55;5.50;;;;;;;8.92;100.00;100837.75;5010102;28;20048;-81
2023/01/06 09:22:37;;;;;;;14.85;7.95;;;;;;;9.45;100.00;100926.59;5013183;28;20095;-81
2023/01/06 09:25:03;;;;;;;9.93;6.43;;;;;;;9.12;100.00;100848.50;5007815;28;20042;-81
2023/01/06 09:27:28;;;;;;;11.68;7.13;;;;;;;9.80;100.00;100955.84;5009749;28;20587;-82
2023/01/06 09:29:54;;;;;;;10.38;6.20;;;;;;;9.30;100.00;100835.63;5015646;28;20131;-80
2023/01/06 09:32:19;;;;;;;11.15;7.38;;;;;;;9.85;100.00;100920.09;5006326;28;20560;-83
2023/01/06 09:34:45;;;;;;;15.98;7.35;;;;;;;9.38;100.00;100847.06;5009057;28;20405;-87
2023/01/06 09:37:10;;;;;;;11.00;6.63;;;;;;;9.91;100.00;100953.38;5010257;28;20045;-85
2023/01/06 09:39:36;;;;;;;11.13;5.60;;;;;;;9.47;100.00;100846.31;5011858;28;20068;-84
2023/01/06 09:42:31;;;;;;;11.57;5.40;;;;;;;10.15;100.00;100934.38;5025836;28;20044;-83
2023/01/06 09:45:15;;;;;;;13.43;7.05;;;;;;;9.35;100.00;100809.50;5002998;28;20510;-84
2023/01/06 09:47:54;;;;;;;8.40;5.13;;;;;;;10.30;100.00;100924.09;5007483;28;20052;-84
2023/01/06 09:50:41;;;;;;;8.77;5.40;;;;;;;9.87;100.00;100831.00;5002570;28;20073;-83
2023/01/06 09:53:21;;;;;;;16.33;5.15;;;;;;;10.43;100.00;100929.44;5003934;28;20038;-87
2023/01/06 09:55:59;;;;;;;12.50;5.65;;;;;;;9.62;100.00;100814.13;5007962;28;20490;-85
2023/01/06 09:58:36;;;;;;;9.57;5.28;;;;;;;10.29;100.00;100890.84;5015403;28;20050;-85
2023/01/06 10:01:11;;;;;;;9.90;5.65;;;;;;;10.18;100.00;100852.25;5011241;28;20463;-84
2023/01/06 10:03:37;;;;;;;9.27;5.63;;;;;;;10.40;100.00;100895.31;5009058;28;20065;-83
2023/01/06 10:06:30;;;;;;;12.98;5.43;;;;;;;9.89;100.00;100772.47;5008841;28;20585;-82
2023/01/06 10:08:58;;;;;;;14.30;5.95;;;;;;;10.83;100.00;100933.25;5018823;28;20075;-83
2023/01/06 10:12:16;;;;;;;7.47;4.85;;;;;;;10.81;100.00;100945.50;4996053;28;20034;-81
2023/01/06 10:15:19;;;;;;;6.65;4.65;;;;;;;10.90;100.00;100942.94;5013415;28;20049;-83
2023/01/06 10:18:09;;;;;;;11.80;5.47;;;;;;;11.04;100.00;100937.78;5005100;28;20509;-83
2023/01/06 10:20:53;;;;;;;8.40;4.70;;;;;;;10.52;100.00;100819.31;5001699;28;20054;-85
2023/01/06 10:23:43;;;;;;;8.52;4.10;;;;;;;11.20;100.00;100949.28;5000038;28;20048;-78
2023/01/06 10:26:11;;;;;;;8.50;5.32;;;;;;;11.37;100.00;100929.22;5013365;28;20029;-79
2023/01/06 10:28:47;;;;;;;15.60;6.40;;;;;;;10.86;100.00;100830.88;5012722;28;20073;-79
2023/01/06 10:31:22;;;;;;;16.13;5.95;;;;;;;10.94;100.00;100914.97;5006038;28;20085;-79
2023/01/06 10:33:53;;;;;;;10.93;4.60;;;;;;;11.06;100.00;100899.28;5005601;28;20136;-81
2023/01/06 10:36:30;;;;;;;10.85;5.80;;;;;;;9.99;100.00;100710.50;5000962;28;20562;-80
2023/01/06 10:38:57;;;;;;;9.00;5.40;;;;;;;11.05;100.00;100826.63;5004180;28;20187;-80
2023/01/06 10:41:31;;;;;;;6.32;3.15;;;;;;;11.82;100.00;100926.78;5008128;28;20120;-80
2023/01/06 10:43:57;;;;;;;8.05;4.22;;;;;;;11.88;100.00;100934.72;4995061;28;20044;-80
2023/01/06 10:46:29;;;;;;;15.80;5.93;;;;;;;12.12;100.00;100922.50;5002602;28;20458;-79
2023/01/06 10:48:55;;;;;;;7.10;3.47;;;;;;;12.41;100.00;100888.34;5005812;28;20034;-78
2023/01/06 10:51:23;;;;;;;7.47;4.28;;;;;;;12.63;100.00;100919.03;5012033;28;20064;-77
2023/01/06 10:53:49;;;;;;;6.65;3.63;;;;;;;12.29;100.00;100793.59;5009053;28;20095;-82
2023/01/06 10:56:16;;;;;;;8.30;3.78;;;;;;;12.70;100.00;100909.38;5005218;28;20038;-81
2023/01/06 10:58:56;;;;;;;7.88;4.60;;;;;;;12.70;100.00;100817.22;4989586;28;20058;-80
2023/01/06 11:01:26;;;;;;;7.15;4.20;;;;;;;13.29;100.00;100903.13;5002008;28;20100;-78
2023/01/06 11:04:12;;;;;;;15.25;3.97;;;;;;;13.78;100.00;100909.09;5003965;28;20053;-79
2023/01/06 11:06:50;;;;;;;7.28;3.35;;;;;;;13.92;100.00;100915.16;5000490;28;20058;-79
2023/01/06 11:09:25;;;;;;;9.32;4.20;;;;;;;13.68;100.00;100921.47;4998492;28;20117;-87
2023/01/06 11:11:53;;;;;;;9.10;4.10;;;;;;;13.22;100.00;100809.13;4999441;28;20050;-90
2023/01/06 11:14:23;;;;;;;12.18;3.72;;;;;;;13.49;100.00;100900.44;5004671;28;20037;-86
2023/01/06 11:17:00;;;;;;;7.45;3.72;;;;;;;12.77;100.00;100713.63;5007385;28;20083;-85
2023/01/06 11:19:38;;;;;;;16.15;4.40;;;;;;;13.57;100.00;100876.66;5007038;28;20584;-85
2023/01/06 11:22:05;;;;;;;9.43;3.90;;;;;;;13.40;100.00;100800.31;4993939;28;20057;-87
2023/01/06 11:24:31;;;;;;;8.25;3.33;;;;;;;13.43;97.40;100796.78;5007333;28;20130;-86
2023/01/06 11:27:13;;;;;;;5.55;3.42;;;;;;;13.44;98.86;100820.50;5008887;28;20090;-83
2023/01/06 11:29:38;;;;;;;11.00;4.13;;;;;;;13.76;100.00;100898.53;5004356;28;20041;-86